^^
Saratoga-Weather Station Historical Data
Daily Summary for October 27, 2020 Units:  Both    English   Metric
Daily Weekly Monthly Yearly Custom
  High: Low: Average:
Temperature: 53.6 °F /  12 °C 45.7 °F /  7.6 °C 50.2 °F /  10.1 °C
Dew Point: 48.9 °F /  9.4 °C 43.3 °F /  6.3 °C 45.7 °F /  7.6 °C
Humidity: 93% 70% 85%
Wind Speed: 10.1mph /  16.3km/h - 2.1mph /  3.4km/h
Wind Gust: 13mph /  20.9km/h - -
Wind- - South
Pressure: 29.8 in /  1009.5 hPa 29.7 in /  1006.1 hPa -
Precipitation: 0.06 in /  1.5 mm    
Historical Graphs
 
 
Tabular Data for October 27, 2020
Time Temperature Dew Point Pressure Wind Wind Speed Wind Gust Humidity Rainfall Rate (Hourly) solar
00:02 46.9 °F /  8.3 °C 43.5 °F /  6.4 °C 29.7in /  1006.1hPa NNE 2mph /  3.2km/h 4mph /  6.4km/h 88% 0in /  0.0mm 0 W/m2
00:07 46.9 °F /  8.3 °C 43.5 °F /  6.4 °C 29.7in /  1006.1hPa ESE 2mph /  3.2km/h 3mph /  4.8km/h 88% 0in /  0.0mm 0 W/m2
00:12 46.8 °F /  8.2 °C 43.3 °F /  6.3 °C 29.7in /  1006.4hPa NNW 4.9mph /  7.9km/h 5mph /  8km/h 88% 0in /  0.0mm 0 W/m2
00:17 46.8 °F /  8.2 °C 43.3 °F /  6.3 °C 29.7in /  1006.4hPa NNW 0.9mph /  1.4km/h 2mph /  3.2km/h 88% 0in /  0.0mm 0 W/m2
00:22 46.8 °F /  8.2 °C 43.3 °F /  6.3 °C 29.7in /  1006.4hPa WNW 4.9mph /  7.9km/h 5mph /  8km/h 88% 0in /  0.0mm 0 W/m2
00:27 46.8 °F /  8.2 °C 43.3 °F /  6.3 °C 29.7in /  1006.4hPa West 2mph /  3.2km/h 4mph /  6.4km/h 88% 0in /  0.0mm 0 W/m2
00:32 46.8 °F /  8.2 °C 43.7 °F /  6.5 °C 29.7in /  1006.4hPa NNE 0.9mph /  1.4km/h 3mph /  4.8km/h 89% 0.01in /  0.2mm 0 W/m2
00:37 46.8 °F /  8.2 °C 44.1 °F /  6.7 °C 29.7in /  1006.4hPa Calm   2mph /  3.2km/h 90% 0.01in /  0.2mm 0 W/m2
00:42 46.6 °F /  8.1 °C 43.9 °F /  6.6 °C 29.7in /  1006.4hPa Calm   3mph /  4.8km/h 90% 0.01in /  0.2mm 0 W/m2
00:47 46.6 °F /  8.1 °C 43.9 °F /  6.6 °C 29.7in /  1006.4hPa North 0.9mph /  1.4km/h 2mph /  3.2km/h 90% 0.01in /  0.2mm 0 W/m2
00:52 46.4 °F /  8 °C 43.7 °F /  6.5 °C 29.7in /  1006.4hPa North 2mph /  3.2km/h 4mph /  6.4km/h 90% 0.01in /  0.2mm 0 W/m2
00:57 46 °F /  7.8 °C 43.3 °F /  6.3 °C 29.7in /  1006.4hPa East 2mph /  3.2km/h 3mph /  4.8km/h 90% 0.01in /  0.2mm 0 W/m2
01:02 45.9 °F /  7.7 °C 43.3 °F /  6.3 °C 29.7in /  1006.4hPa SE 0.9mph /  1.4km/h 4mph /  6.4km/h 91% 0.01in /  0.2mm 0 W/m2
01:12 45.7 °F /  7.6 °C 43.5 °F /  6.4 °C 29.7in /  1006.4hPa Calm   1mph /  1.6km/h 92% 0.01in /  0.2mm 0 W/m2
01:17 45.7 °F /  7.6 °C 43.5 °F /  6.4 °C 29.7in /  1006.4hPa Calm   2mph /  3.2km/h 92% 0.01in /  0.2mm 0 W/m2
01:22 45.7 °F /  7.6 °C 43.5 °F /  6.4 °C 29.7in /  1006.4hPa Calm     92% 0.01in /  0.2mm 0 W/m2
01:27 45.7 °F /  7.6 °C 43.5 °F /  6.4 °C 29.7in /  1006.4hPa Calm   1mph /  1.6km/h 92% 0.01in /  0.2mm 0 W/m2
01:32 45.7 °F /  7.6 °C 43.5 °F /  6.4 °C 29.7in /  1006.4hPa NE 0.9mph /  1.4km/h 2mph /  3.2km/h 92% 0in /  0.0mm 0 W/m2
01:37 45.7 °F /  7.6 °C 43.7 °F /  6.5 °C 29.7in /  1006.4hPa West 0.9mph /  1.4km/h 3mph /  4.8km/h 93% 0in /  0.0mm 0 W/m2
01:42 45.9 °F /  7.7 °C 43.9 °F /  6.6 °C 29.7in /  1006.4hPa East 0.9mph /  1.4km/h 2mph /  3.2km/h 93% 0in /  0.0mm 0 W/m2
01:47 46 °F /  7.8 °C 44.1 °F /  6.7 °C 29.7in /  1006.4hPa Calm   3mph /  4.8km/h 93% 0in /  0.0mm 0 W/m2
01:52 46.2 °F /  7.9 °C 44.1 °F /  6.7 °C 29.7in /  1006.4hPa NW 0.9mph /  1.4km/h 2mph /  3.2km/h 92% 0in /  0.0mm 0 W/m2
01:57 46.4 °F /  8 °C 44.2 °F /  6.8 °C 29.7in /  1006.4hPa East 0.9mph /  1.4km/h 3mph /  4.8km/h 92% 0in /  0.0mm 0 W/m2
02:02 46.6 °F /  8.1 °C 44.4 °F /  6.9 °C 29.7in /  1006.4hPa Calm   1mph /  1.6km/h 92% 0in /  0.0mm 0 W/m2
02:08 46.6 °F /  8.1 °C 44.4 °F /  6.9 °C 29.7in /  1006.4hPa ESE 0.9mph /  1.4km/h 1mph /  1.6km/h 92% 0in /  0.0mm 0 W/m2
02:13 46.8 °F /  8.2 °C 44.6 °F /  7 °C 29.7in /  1006.4hPa NE 0.9mph /  1.4km/h 1mph /  1.6km/h 92% 0in /  0.0mm 0 W/m2
02:18 46.8 °F /  8.2 °C 44.6 °F /  7 °C 29.7in /  1006.4hPa Calm   3mph /  4.8km/h 92% 0in /  0.0mm 0 W/m2
02:23 46.8 °F /  8.2 °C 44.6 °F /  7 °C 29.7in /  1006.4hPa WNW 2mph /  3.2km/h 4mph /  6.4km/h 92% 0in /  0.0mm 0 W/m2
02:28 46.9 °F /  8.3 °C 44.8 °F /  7.1 °C 29.7in /  1006.4hPa NNE 0.9mph /  1.4km/h 3mph /  4.8km/h 92% 0in /  0.0mm 0 W/m2
02:33 46.9 °F /  8.3 °C 44.8 °F /  7.1 °C 29.7in /  1006.4hPa NNE 2mph /  3.2km/h 4mph /  6.4km/h 92% 0in /  0.0mm 0 W/m2
02:38 46.9 °F /  8.3 °C 44.4 °F /  6.9 °C 29.7in /  1006.4hPa North 2mph /  3.2km/h 3mph /  4.8km/h 91% 0in /  0.0mm 0 W/m2
02:43 47.1 °F /  8.4 °C 44.6 °F /  7 °C 29.7in /  1006.8hPa NW 4mph /  6.4km/h 8mph /  12.9km/h 91% 0in /  0.0mm 0 W/m2
02:48 47.1 °F /  8.4 °C 44.6 °F /  7 °C 29.7in /  1006.4hPa NNW 0.9mph /  1.4km/h 3mph /  4.8km/h 91% 0in /  0.0mm 0 W/m2
02:53 47.1 °F /  8.4 °C 44.6 °F /  7 °C 29.7in /  1006.4hPa NW 0.9mph /  1.4km/h 3mph /  4.8km/h 91% 0in /  0.0mm 0 W/m2
02:58 47.3 °F /  8.5 °C 44.8 °F /  7.1 °C 29.7in /  1006.4hPa NW 2mph /  3.2km/h 2mph /  3.2km/h 91% 0in /  0.0mm 0 W/m2
03:03 47.3 °F /  8.5 °C 44.8 °F /  7.1 °C 29.7in /  1006.4hPa North 2mph /  3.2km/h 4mph /  6.4km/h 91% 0in /  0.0mm 0 W/m2
03:08 47.5 °F /  8.6 °C 45 °F /  7.2 °C 29.7in /  1006.4hPa WSW 0.9mph /  1.4km/h 3mph /  4.8km/h 91% 0in /  0.0mm 0 W/m2
03:13 47.5 °F /  8.6 °C 45 °F /  7.2 °C 29.7in /  1006.4hPa Calm   4mph /  6.4km/h 91% 0in /  0.0mm 0 W/m2
03:18 47.5 °F /  8.6 °C 45 °F /  7.2 °C 29.7in /  1006.4hPa West 0.9mph /  1.4km/h 3mph /  4.8km/h 91% 0in /  0.0mm 0 W/m2
03:23 47.5 °F /  8.6 °C 45 °F /  7.2 °C 29.7in /  1006.4hPa Calm   2mph /  3.2km/h 91% 0in /  0.0mm 0 W/m2
03:28 47.5 °F /  8.6 °C 45 °F /  7.2 °C 29.7in /  1006.4hPa ENE 0.9mph /  1.4km/h 3mph /  4.8km/h 91% 0in /  0.0mm 0 W/m2
03:33 47.5 °F /  8.6 °C 45 °F /  7.2 °C 29.7in /  1006.4hPa North 0.9mph /  1.4km/h 2mph /  3.2km/h 91% 0in /  0.0mm 0 W/m2
03:38 47.5 °F /  8.6 °C 45 °F /  7.2 °C 29.7in /  1006.4hPa NW 0.9mph /  1.4km/h 4mph /  6.4km/h 91% 0in /  0.0mm 0 W/m2
03:43 47.7 °F /  8.7 °C 45.1 °F /  7.3 °C 29.7in /  1006.4hPa NNW 2.9mph /  4.7km/h 3mph /  4.8km/h 91% 0in /  0.0mm 0 W/m2
03:48 47.7 °F /  8.7 °C 45.1 °F /  7.3 °C 29.7in /  1006.4hPa ENE 0.9mph /  1.4km/h 4mph /  6.4km/h 91% 0in /  0.0mm 0 W/m2
03:53 47.7 °F /  8.7 °C 45.1 °F /  7.3 °C 29.7in /  1006.4hPa NNE 0.9mph /  1.4km/h 2mph /  3.2km/h 91% 0in /  0.0mm 0 W/m2
03:58 47.7 °F /  8.7 °C 45.1 °F /  7.3 °C 29.7in /  1006.4hPa NNW 2mph /  3.2km/h 3mph /  4.8km/h 91% 0in /  0.0mm 0 W/m2
04:03 47.7 °F /  8.7 °C 45.1 °F /  7.3 °C 29.7in /  1006.4hPa WNW 2mph /  3.2km/h 7mph /  11.3km/h 91% 0in /  0.0mm 0 W/m2
04:08 47.7 °F /  8.7 °C 45 °F /  7.2 °C 29.7in /  1006.4hPa West 0.9mph /  1.4km/h 3mph /  4.8km/h 90% 0in /  0.0mm 0 W/m2
04:13 47.8 °F /  8.8 °C 45.3 °F /  7.4 °C 29.7in /  1006.4hPa WNW 0.9mph /  1.4km/h 2mph /  3.2km/h 91% 0in /  0.0mm 0 W/m2
04:18 47.8 °F /  8.8 °C 45 °F /  7.2 °C 29.7in /  1006.8hPa NW 2mph /  3.2km/h 3mph /  4.8km/h 90% 0in /  0.0mm 0 W/m2
04:23 47.8 °F /  8.8 °C 45 °F /  7.2 °C 29.7in /  1006.8hPa NNW 0.9mph /  1.4km/h 2mph /  3.2km/h 90% 0in /  0.0mm 0 W/m2
04:28 47.8 °F /  8.8 °C 45 °F /  7.2 °C 29.7in /  1006.8hPa East 0.9mph /  1.4km/h 3mph /  4.8km/h 90% 0in /  0.0mm 0 W/m2
04:33 47.8 °F /  8.8 °C 45 °F /  7.2 °C 29.7in /  1006.8hPa Calm   1mph /  1.6km/h 90% 0in /  0.0mm 0 W/m2
04:38 47.8 °F /  8.8 °C 45 °F /  7.2 °C 29.7in /  1006.8hPa North 2mph /  3.2km/h 4mph /  6.4km/h 90% 0in /  0.0mm 0 W/m2
04:43 48 °F /  8.9 °C 45.1 °F /  7.3 °C 29.7in /  1006.8hPa NW 0.9mph /  1.4km/h 8mph /  12.9km/h 90% 0in /  0.0mm 0 W/m2
04:48 48 °F /  8.9 °C 45.1 °F /  7.3 °C 29.7in /  1006.8hPa WNW 2mph /  3.2km/h 2mph /  3.2km/h 90% 0in /  0.0mm 0 W/m2
04:53 48 °F /  8.9 °C 45.5 °F /  7.5 °C 29.7in /  1006.8hPa NW 0.9mph /  1.4km/h 3mph /  4.8km/h 91% 0in /  0.0mm 0 W/m2
04:58 48 °F /  8.9 °C 45.1 °F /  7.3 °C 29.7in /  1006.8hPa Calm   1mph /  1.6km/h 90% 0in /  0.0mm 0 W/m2
05:03 47.8 °F /  8.8 °C 45.3 °F /  7.4 °C 29.7in /  1006.8hPa NNE 2mph /  3.2km/h 3mph /  4.8km/h 91% 0in /  0.0mm 0 W/m2
05:08 47.8 °F /  8.8 °C 45.3 °F /  7.4 °C 29.7in /  1006.8hPa NW 0.9mph /  1.4km/h 4mph /  6.4km/h 91% 0in /  0.0mm 0 W/m2
05:13 47.8 °F /  8.8 °C 45.3 °F /  7.4 °C 29.7in /  1006.8hPa Calm   2mph /  3.2km/h 91% 0in /  0.0mm 0 W/m2
05:19 47.8 °F /  8.8 °C 45.3 °F /  7.4 °C 29.7in /  1006.8hPa Calm   3mph /  4.8km/h 91% 0in /  0.0mm 0 W/m2
05:24 47.8 °F /  8.8 °C 45.3 °F /  7.4 °C 29.7in /  1006.8hPa North 0.9mph /  1.4km/h 3mph /  4.8km/h 91% 0in /  0.0mm 0 W/m2
05:29 47.8 °F /  8.8 °C 45.3 °F /  7.4 °C 29.7in /  1007.1hPa NE 2mph /  3.2km/h 2mph /  3.2km/h 91% 0in /  0.0mm 0 W/m2
05:34 47.8 °F /  8.8 °C 45.3 °F /  7.4 °C 29.7in /  1007.1hPa NNW 2.9mph /  4.7km/h 3mph /  4.8km/h 91% 0in /  0.0mm 0 W/m2
05:39 47.8 °F /  8.8 °C 45.3 °F /  7.4 °C 29.7in /  1007.1hPa Calm   1mph /  1.6km/h 91% 0in /  0.0mm 0 W/m2
05:44 47.8 °F /  8.8 °C 45.3 °F /  7.4 °C 29.7in /  1007.1hPa NE 2mph /  3.2km/h 3mph /  4.8km/h 91% 0in /  0.0mm 0 W/m2
05:49 47.8 °F /  8.8 °C 45.3 °F /  7.4 °C 29.7in /  1007.1hPa Calm   2mph /  3.2km/h 91% 0in /  0.0mm 0 W/m2
05:54 47.8 °F /  8.8 °C 45.7 °F /  7.6 °C 29.7in /  1007.1hPa NW 2mph /  3.2km/h 6mph /  9.7km/h 92% 0in /  0.0mm 0 W/m2
05:59 47.8 °F /  8.8 °C 45.7 °F /  7.6 °C 29.7in /  1007.1hPa East 2.9mph /  4.7km/h 3mph /  4.8km/h 92% 0in /  0.0mm 0 W/m2
06:04 47.8 °F /  8.8 °C 45.3 °F /  7.4 °C 29.8in /  1007.5hPa NNW 2.9mph /  4.7km/h 5mph /  8km/h 91% 0in /  0.0mm 0 W/m2
06:09 48 °F /  8.9 °C 45.5 °F /  7.5 °C 29.8in /  1007.5hPa NW 2.9mph /  4.7km/h 5mph /  8km/h 91% 0in /  0.0mm 0 W/m2
06:14 48 °F /  8.9 °C 45.5 °F /  7.5 °C 29.8in /  1007.5hPa Calm   2mph /  3.2km/h 91% 0in /  0.0mm 0 W/m2
06:19 48 °F /  8.9 °C 45.5 °F /  7.5 °C 29.8in /  1007.5hPa NW 0.9mph /  1.4km/h 2mph /  3.2km/h 91% 0in /  0.0mm 0 W/m2
06:24 48 °F /  8.9 °C 45.5 °F /  7.5 °C 29.7in /  1007.1hPa North 2mph /  3.2km/h 2mph /  3.2km/h 91% 0in /  0.0mm 0 W/m2
06:29 48 °F /  8.9 °C 45.5 °F /  7.5 °C 29.8in /  1007.5hPa NNE 0.9mph /  1.4km/h 2mph /  3.2km/h 91% 0in /  0.0mm 0 W/m2
06:34 48 °F /  8.9 °C 45.5 °F /  7.5 °C 29.8in /  1007.5hPa North 0.9mph /  1.4km/h 2mph /  3.2km/h 91% 0in /  0.0mm 0 W/m2
06:39 48 °F /  8.9 °C 45.5 °F /  7.5 °C 29.8in /  1007.5hPa NW 2.9mph /  4.7km/h 3mph /  4.8km/h 91% 0in /  0.0mm 0 W/m2
06:44 48 °F /  8.9 °C 45.5 °F /  7.5 °C 29.8in /  1007.5hPa Calm   3mph /  4.8km/h 91% 0in /  0.0mm 0 W/m2
06:49 48 °F /  8.9 °C 45.5 °F /  7.5 °C 29.8in /  1007.5hPa Calm   3mph /  4.8km/h 91% 0in /  0.0mm 0 W/m2
06:54 48 °F /  8.9 °C 45.9 °F /  7.7 °C 29.8in /  1007.5hPa North 0.9mph /  1.4km/h 2mph /  3.2km/h 92% 0in /  0.0mm 0 W/m2
06:59 48 °F /  8.9 °C 45.9 °F /  7.7 °C 29.8in /  1007.5hPa NNE 0.9mph /  1.4km/h 2mph /  3.2km/h 92% 0in /  0.0mm 0 W/m2
07:04 48 °F /  8.9 °C 45.9 °F /  7.7 °C 29.8in /  1007.5hPa NW 0.9mph /  1.4km/h 4mph /  6.4km/h 92% 0in /  0.0mm 0 W/m2
07:09 48 °F /  8.9 °C 45.9 °F /  7.7 °C 29.8in /  1007.5hPa ENE 2mph /  3.2km/h 3mph /  4.8km/h 92% 0in /  0.0mm 0 W/m2
07:14 48 °F /  8.9 °C 45.9 °F /  7.7 °C 29.8in /  1007.5hPa SSW 2mph /  3.2km/h 2mph /  3.2km/h 92% 0in /  0.0mm 0 W/m2
07:19 48 °F /  8.9 °C 45.9 °F /  7.7 °C 29.8in /  1007.8hPa NNE 0.9mph /  1.4km/h 2mph /  3.2km/h 92% 0in /  0.0mm 0 W/m2
07:24 48 °F /  8.9 °C 45.9 °F /  7.7 °C 29.8in /  1007.8hPa Calm   2mph /  3.2km/h 92% 0in /  0.0mm 0 W/m2
07:29 47.8 °F /  8.8 °C 45.7 °F /  7.6 °C 29.8in /  1007.8hPa Calm   2mph /  3.2km/h 92% 0.01in /  0.2mm 0 W/m2
07:34 47.8 °F /  8.8 °C 45.9 °F /  7.7 °C 29.8in /  1007.8hPa NW 2.9mph /  4.7km/h 3mph /  4.8km/h 93% 0.01in /  0.2mm 0 W/m2
07:39 47.8 °F /  8.8 °C 45.9 °F /  7.7 °C 29.8in /  1008.1hPa West 2mph /  3.2km/h 7mph /  11.3km/h 93% 0.01in /  0.2mm 0 W/m2
07:44 47.8 °F /  8.8 °C 45.9 °F /  7.7 °C 29.8in /  1008.1hPa WNW 2.9mph /  4.7km/h 3mph /  4.8km/h 93% 0.02in /  0.5mm 0 W/m2
07:49 47.8 °F /  8.8 °C 45.9 °F /  7.7 °C 29.8in /  1008.1hPa NNW 0.9mph /  1.4km/h 4mph /  6.4km/h 93% 0.02in /  0.5mm 7 W/m2
07:54 47.8 °F /  8.8 °C 45.9 °F /  7.7 °C 29.8in /  1008.1hPa NNE 0.9mph /  1.4km/h 3mph /  4.8km/h 93% 0.02in /  0.5mm 7 W/m2
07:59 47.8 °F /  8.8 °C 45.9 °F /  7.7 °C 29.8in /  1008.1hPa NE 2mph /  3.2km/h 2mph /  3.2km/h 93% 0.02in /  0.5mm 9 W/m2
08:04 47.8 °F /  8.8 °C 45.9 °F /  7.7 °C 29.8in /  1008.1hPa NNE 4mph /  6.4km/h 4mph /  6.4km/h 93% 0.02in /  0.5mm 11 W/m2
08:09 47.8 °F /  8.8 °C 45.9 °F /  7.7 °C 29.8in /  1008.1hPa NW 2.9mph /  4.7km/h 3mph /  4.8km/h 93% 0.02in /  0.5mm 9 W/m2
08:14 47.8 °F /  8.8 °C 45.9 °F /  7.7 °C 29.8in /  1008.5hPa WNW 2.9mph /  4.7km/h 6mph /  9.7km/h 93% 0.02in /  0.5mm 14 W/m2
08:19 48 °F /  8.9 °C 46 °F /  7.8 °C 29.8in /  1008.5hPa Calm   4mph /  6.4km/h 93% 0.02in /  0.5mm 14 W/m2
08:24 48 °F /  8.9 °C 46 °F /  7.8 °C 29.8in /  1008.5hPa Calm   4mph /  6.4km/h 93% 0.02in /  0.5mm 9 W/m2
08:29 48 °F /  8.9 °C 46 °F /  7.8 °C 29.8in /  1008.5hPa Calm   2mph /  3.2km/h 93% 0.02in /  0.5mm 16 W/m2
08:34 48 °F /  8.9 °C 46 °F /  7.8 °C 29.8in /  1008.5hPa NNW 2.9mph /  4.7km/h 6mph /  9.7km/h 93% 0.02in /  0.5mm 42 W/m2
08:39 48 °F /  8.9 °C 46 °F /  7.8 °C 29.8in /  1008.5hPa Calm   3mph /  4.8km/h 93% 0.02in /  0.5mm 35 W/m2
08:44 48 °F /  8.9 °C 46 °F /  7.8 °C 29.8in /  1008.5hPa Calm   2mph /  3.2km/h 93% 0.01in /  0.2mm 32 W/m2
08:49 48 °F /  8.9 °C 46 °F /  7.8 °C 29.8in /  1008.5hPa WNW 2.9mph /  4.7km/h 6mph /  9.7km/h 93% 0.01in /  0.2mm 40 W/m2
08:54 48.2 °F /  9 °C 46.2 °F /  7.9 °C 29.8in /  1008.5hPa NW 2.9mph /  4.7km/h 3mph /  4.8km/h 93% 0.01in /  0.2mm 47 W/m2
08:59 48.2 °F /  9 °C 46.2 °F /  7.9 °C 29.8in /  1008.5hPa Calm   3mph /  4.8km/h 93% 0.01in /  0.2mm 90 W/m2
09:04 48.4 °F /  9.1 °C 46.4 °F /  8 °C 29.8in /  1008.5hPa NNW 2.9mph /  4.7km/h 4mph /  6.4km/h 93% 0.01in /  0.2mm 90 W/m2
09:09 48.6 °F /  9.2 °C 46.4 °F /  8 °C 29.8in /  1008.8hPa WNW 4.9mph /  7.9km/h 6mph /  9.7km/h 92% 0.01in /  0.2mm 40 W/m2
09:14 48.6 °F /  9.2 °C 46.4 °F /  8 °C 29.8in /  1008.8hPa WSW 2.9mph /  4.7km/h 4mph /  6.4km/h 92% 0.01in /  0.2mm 47 W/m2
09:19 48.6 °F /  9.2 °C 46.4 °F /  8 °C 29.8in /  1008.8hPa East 0.9mph /  1.4km/h 5mph /  8km/h 92% 0.01in /  0.2mm 54 W/m2
09:24 48.6 °F /  9.2 °C 46.4 °F /  8 °C 29.8in /  1008.8hPa WSW 0.9mph /  1.4km/h 3mph /  4.8km/h 92% 0in /  0.0mm 86 W/m2
09:29 48.6 °F /  9.2 °C 46.4 °F /  8 °C 29.8in /  1008.8hPa NE 0.9mph /  1.4km/h 3mph /  4.8km/h 92% 0in /  0.0mm 169 W/m2
09:34 48.7 °F /  9.3 °C 46.6 °F /  8.1 °C 29.8in /  1008.8hPa Calm   5mph /  8km/h 92% 0in /  0.0mm 190 W/m2
09:39 48.9 °F /  9.4 °C 46.4 °F /  8 °C 29.8in /  1008.8hPa NNW 6mph /  9.7km/h 8mph /  12.9km/h 91% 0in /  0.0mm 98 W/m2
09:44 48.9 °F /  9.4 °C 46.4 °F /  8 °C 29.8in /  1008.8hPa North 2.9mph /  4.7km/h 6mph /  9.7km/h 91% 0in /  0.0mm 97 W/m2
09:49 49.1 °F /  9.5 °C 46.6 °F /  8.1 °C 29.8in /  1008.8hPa South 2mph /  3.2km/h 7mph /  11.3km/h 91% 0in /  0.0mm 223 W/m2
09:54 49.5 °F /  9.7 °C 46.6 °F /  8.1 °C 29.8in /  1008.8hPa WNW 0.9mph /  1.4km/h 3mph /  4.8km/h 90% 0in /  0.0mm 163 W/m2
09:59 49.6 °F /  9.8 °C 46.6 °F /  8.1 °C 29.8in /  1008.8hPa NW 0.9mph /  1.4km/h 8mph /  12.9km/h 89% 0in /  0.0mm 139 W/m2
10:04 49.6 °F /  9.8 °C 46.2 °F /  7.9 °C 29.8in /  1008.8hPa WNW 4mph /  6.4km/h 8mph /  12.9km/h 88% 0in /  0.0mm 158 W/m2
10:09 49.6 °F /  9.8 °C 46.6 °F /  8.1 °C 29.8in /  1008.8hPa South 2.9mph /  4.7km/h 5mph /  8km/h 89% 0in /  0.0mm 142 W/m2
10:14 49.8 °F /  9.9 °C 46.4 °F /  8 °C 29.8in /  1008.8hPa NW 2.9mph /  4.7km/h 5mph /  8km/h 88% 0in /  0.0mm 162 W/m2
10:19 50 °F /  10 °C 46.6 °F /  8.1 °C 29.8in /  1008.8hPa WNW 0.9mph /  1.4km/h 4mph /  6.4km/h 88% 0in /  0.0mm 137 W/m2
10:24 50.2 °F /  10.1 °C 46.4 °F /  8 °C 29.8in /  1008.8hPa SW 2mph /  3.2km/h 3mph /  4.8km/h 87% 0in /  0.0mm 176 W/m2
10:29 50.2 °F /  10.1 °C 46.4 °F /  8 °C 29.8in /  1009.1hPa West 10.1mph /  16.3km/h 10mph /  16.1km/h 87% 0in /  0.0mm 206 W/m2
10:35 50.2 °F /  10.1 °C 46.4 °F /  8 °C 29.8in /  1008.8hPa Calm   5mph /  8km/h 87% 0in /  0.0mm 149 W/m2
10:40 50.4 °F /  10.2 °C 46.6 °F /  8.1 °C 29.8in /  1009.1hPa NW 2.9mph /  4.7km/h 4mph /  6.4km/h 87% 0in /  0.0mm 109 W/m2
10:45 50.4 °F /  10.2 °C 46.4 °F /  8 °C 29.8in /  1009.1hPa NNE 2mph /  3.2km/h 3mph /  4.8km/h 86% 0in /  0.0mm 172 W/m2
10:50 50.5 °F /  10.3 °C 46.6 °F /  8.1 °C 29.8in /  1009.1hPa NW 2.9mph /  4.7km/h 5mph /  8km/h 86% 0in /  0.0mm 272 W/m2
10:55 50.5 °F /  10.3 °C 46.2 °F /  7.9 °C 29.8in /  1009.1hPa WSW 4.9mph /  7.9km/h 9mph /  14.5km/h 85% 0in /  0.0mm 178 W/m2
11:00 50.7 °F /  10.4 °C 45.7 °F /  7.6 °C 29.8in /  1009.1hPa Calm   5mph /  8km/h 83% 0in /  0.0mm 102 W/m2
11:05 50.7 °F /  10.4 °C 45.5 °F /  7.5 °C 29.8in /  1009.1hPa North 2.9mph /  4.7km/h 4mph /  6.4km/h 82% 0in /  0.0mm 134 W/m2
11:10 50.7 °F /  10.4 °C 45.5 °F /  7.5 °C 29.8in /  1009.1hPa NNW 4mph /  6.4km/h 7mph /  11.3km/h 82% 0in /  0.0mm 186 W/m2
11:15 50.7 °F /  10.4 °C 45.1 °F /  7.3 °C 29.8in /  1009.1hPa WNW 4.9mph /  7.9km/h 6mph /  9.7km/h 81% 0in /  0.0mm 181 W/m2
11:20 50.9 °F /  10.5 °C 45.3 °F /  7.4 °C 29.8in /  1009.5hPa NNW 2.9mph /  4.7km/h 4mph /  6.4km/h 81% 0in /  0.0mm 139 W/m2
11:25 50.9 °F /  10.5 °C 45 °F /  7.2 °C 29.8in /  1009.5hPa West 6mph /  9.7km/h 8mph /  12.9km/h 80% 0in /  0.0mm 113 W/m2
11:30 50.9 °F /  10.5 °C 45.3 °F /  7.4 °C 29.8in /  1009.1hPa NW 4mph /  6.4km/h 7mph /  11.3km/h 81% 0in /  0.0mm 135 W/m2
11:35 50.7 °F /  10.4 °C 45.1 °F /  7.3 °C 29.8in /  1009.1hPa NW 6mph /  9.7km/h 8mph /  12.9km/h 81% 0in /  0.0mm 165 W/m2
11:40 50.9 °F /  10.5 °C 45.3 °F /  7.4 °C 29.8in /  1009.1hPa NNE 0.9mph /  1.4km/h 3mph /  4.8km/h 81% 0in /  0.0mm 223 W/m2
11:45 51.1 °F /  10.6 °C 45.1 °F /  7.3 °C 29.8in /  1009.1hPa NW 2.9mph /  4.7km/h 9mph /  14.5km/h 80% 0in /  0.0mm 172 W/m2
11:50 51.1 °F /  10.6 °C 45.1 °F /  7.3 °C 29.8in /  1009.1hPa NNW 2.9mph /  4.7km/h 8mph /  12.9km/h 80% 0in /  0.0mm 169 W/m2
11:55 51.3 °F /  10.7 °C 45.7 °F /  7.6 °C 29.8in /  1009.1hPa NW 2mph /  3.2km/h 4mph /  6.4km/h 81% 0in /  0.0mm 158 W/m2
12:00 51.4 °F /  10.8 °C 45.5 °F /  7.5 °C 29.8in /  1009.1hPa ESE 2.9mph /  4.7km/h 8mph /  12.9km/h 80% 0in /  0.0mm 169 W/m2
12:05 51.4 °F /  10.8 °C 45.1 °F /  7.3 °C 29.8in /  1009.1hPa WNW 2.9mph /  4.7km/h 6mph /  9.7km/h 79% 0in /  0.0mm 183 W/m2
12:10 51.4 °F /  10.8 °C 44.8 °F /  7.1 °C 29.8in /  1009.1hPa North 0.9mph /  1.4km/h 3mph /  4.8km/h 78% 0in /  0.0mm 139 W/m2
12:15 51.4 °F /  10.8 °C 45.1 °F /  7.3 °C 29.8in /  1009.1hPa WNW 0.9mph /  1.4km/h 7mph /  11.3km/h 79% 0in /  0.0mm 77 W/m2
12:20 51.4 °F /  10.8 °C 45.1 °F /  7.3 °C 29.8in /  1009.1hPa WNW 4mph /  6.4km/h 8mph /  12.9km/h 79% 0in /  0.0mm 121 W/m2
12:25 51.4 °F /  10.8 °C 45.1 °F /  7.3 °C 29.8in /  1009.1hPa NE 2mph /  3.2km/h 4mph /  6.4km/h 79% 0in /  0.0mm 199 W/m2
12:30 51.6 °F /  10.9 °C 45.7 °F /  7.6 °C 29.8in /  1008.8hPa Calm   7mph /  11.3km/h 80% 0in /  0.0mm 290 W/m2
12:35 52 °F /  11.1 °C 45.7 °F /  7.6 °C 29.8in /  1009.1hPa WNW 2.9mph /  4.7km/h 6mph /  9.7km/h 79% 0in /  0.0mm 190 W/m2
12:40 52.2 °F /  11.2 °C 45.9 °F /  7.7 °C 29.8in /  1009.1hPa West 2.9mph /  4.7km/h 5mph /  8km/h 79% 0in /  0.0mm 167 W/m2
12:45 52.2 °F /  11.2 °C 45.5 °F /  7.5 °C 29.8in /  1009.1hPa West 2.9mph /  4.7km/h 11mph /  17.7km/h 78% 0in /  0.0mm 185 W/m2
12:50 52.2 °F /  11.2 °C 45.5 °F /  7.5 °C 29.8in /  1009.1hPa WNW 4mph /  6.4km/h 7mph /  11.3km/h 78% 0in /  0.0mm 237 W/m2
12:55 52.2 °F /  11.2 °C 45.5 °F /  7.5 °C 29.8in /  1009.1hPa NE 2.9mph /  4.7km/h 11mph /  17.7km/h 78% 0in /  0.0mm 148 W/m2
13:00 52.3 °F /  11.3 °C 45.3 °F /  7.4 °C 29.8in /  1008.8hPa WNW 2.9mph /  4.7km/h 8mph /  12.9km/h 77% 0in /  0.0mm 172 W/m2
13:05 52.3 °F /  11.3 °C 45.3 °F /  7.4 °C 29.8in /  1008.8hPa NW 6.9mph /  11.1km/h 9mph /  14.5km/h 77% 0in /  0.0mm 237 W/m2
13:10 52.5 °F /  11.4 °C 45.1 °F /  7.3 °C 29.8in /  1008.8hPa NNW 2mph /  3.2km/h 4mph /  6.4km/h 76% 0in /  0.0mm 207 W/m2
13:15 52.9 °F /  11.6 °C 45.1 °F /  7.3 °C 29.8in /  1008.8hPa West 0.9mph /  1.4km/h 6mph /  9.7km/h 75% 0in /  0.0mm 193 W/m2
13:20 52.9 °F /  11.6 °C 45.1 °F /  7.3 °C 29.8in /  1008.8hPa NNW 4.9mph /  7.9km/h 6mph /  9.7km/h 75% 0in /  0.0mm 127 W/m2
13:25 53.1 °F /  11.7 °C 45 °F /  7.2 °C 29.8in /  1008.8hPa West 2.9mph /  4.7km/h 9mph /  14.5km/h 74% 0in /  0.0mm 207 W/m2
13:30 53.1 °F /  11.7 °C 45 °F /  7.2 °C 29.8in /  1008.8hPa NNW 2.9mph /  4.7km/h 3mph /  4.8km/h 74% 0in /  0.0mm 195 W/m2
13:35 53.2 °F /  11.8 °C 45.5 °F /  7.5 °C 29.8in /  1008.8hPa WNW 2.9mph /  4.7km/h 3mph /  4.8km/h 75% 0in /  0.0mm 197 W/m2
13:40 53.2 °F /  11.8 °C 44.8 °F /  7.1 °C 29.8in /  1008.5hPa South 0.9mph /  1.4km/h 3mph /  4.8km/h 73% 0in /  0.0mm 269 W/m2
13:45 53.4 °F /  11.9 °C 45.3 °F /  7.4 °C 29.8in /  1008.5hPa East 2mph /  3.2km/h 5mph /  8km/h 74% 0in /  0.0mm 190 W/m2
13:50 53.4 °F /  11.9 °C 45 °F /  7.2 °C 29.8in /  1008.5hPa NNW 6mph /  9.7km/h 8mph /  12.9km/h 73% 0in /  0.0mm 97 W/m2
13:55 53.4 °F /  11.9 °C 45 °F /  7.2 °C 29.8in /  1008.5hPa West 8.1mph /  13km/h 13mph /  20.9km/h 73% 0in /  0.0mm 121 W/m2
14:00 53.2 °F /  11.8 °C 44.8 °F /  7.1 °C 29.8in /  1008.5hPa Calm   5mph /  8km/h 73% 0in /  0.0mm 121 W/m2
14:05 53.1 °F /  11.7 °C 45 °F /  7.2 °C 29.8in /  1008.5hPa West 2.9mph /  4.7km/h 13mph /  20.9km/h 74% 0in /  0.0mm 86 W/m2
14:10 52.9 °F /  11.6 °C 44.4 °F /  6.9 °C 29.8in /  1008.5hPa Calm   6mph /  9.7km/h 73% 0in /  0.0mm 74 W/m2
14:15 52.9 °F /  11.6 °C 44.8 °F /  7.1 °C 29.8in /  1008.5hPa East 4mph /  6.4km/h 5mph /  8km/h 74% 0in /  0.0mm 91 W/m2
14:20 52.9 °F /  11.6 °C 45.1 °F /  7.3 °C 29.8in /  1008.5hPa NE 2mph /  3.2km/h 3mph /  4.8km/h 75% 0in /  0.0mm 116 W/m2
14:25 53.1 °F /  11.7 °C 45.3 °F /  7.4 °C 29.8in /  1008.5hPa NNW 0.9mph /  1.4km/h 3mph /  4.8km/h 75% 0in /  0.0mm 221 W/m2
14:30 53.2 °F /  11.8 °C 45.1 °F /  7.3 °C 29.8in /  1008.5hPa North 4mph /  6.4km/h 8mph /  12.9km/h 74% 0in /  0.0mm 220 W/m2
14:35 53.2 °F /  11.8 °C 44.4 °F /  6.9 °C 29.8in /  1008.5hPa WNW 0.9mph /  1.4km/h 7mph /  11.3km/h 72% 0in /  0.0mm 178 W/m2
14:40 53.4 °F /  11.9 °C 44.2 °F /  6.8 °C 29.8in /  1008.1hPa ESE 0.9mph /  1.4km/h 4mph /  6.4km/h 71% 0in /  0.0mm 132 W/m2
14:45 53.6 °F /  12 °C 44.4 °F /  6.9 °C 29.8in /  1008.1hPa Calm   1mph /  1.6km/h 71% 0in /  0.0mm 97 W/m2
14:50 53.6 °F /  12 °C 44.1 °F /  6.7 °C 29.8in /  1008.1hPa West 2mph /  3.2km/h 4mph /  6.4km/h 70% 0in /  0.0mm 125 W/m2
14:55 53.4 °F /  11.9 °C 44.2 °F /  6.8 °C 29.8in /  1008.1hPa West 4mph /  6.4km/h 4mph /  6.4km/h 71% 0in /  0.0mm 84 W/m2
15:00 53.4 °F /  11.9 °C 44.6 °F /  7 °C 29.8in /  1008.1hPa NE 2.9mph /  4.7km/h 4mph /  6.4km/h 72% 0in /  0.0mm 105 W/m2
15:05 53.4 °F /  11.9 °C 44.6 °F /  7 °C 29.8in /  1008.1hPa ESE 2.9mph /  4.7km/h 8mph /  12.9km/h 72% 0in /  0.0mm 125 W/m2
15:10 53.4 °F /  11.9 °C 45 °F /  7.2 °C 29.8in /  1008.1hPa NNW 2mph /  3.2km/h 4mph /  6.4km/h 73% 0in /  0.0mm 118 W/m2
15:15 53.2 °F /  11.8 °C 44.8 °F /  7.1 °C 29.8in /  1008.1hPa ENE 2mph /  3.2km/h 3mph /  4.8km/h 73% 0in /  0.0mm 114 W/m2
15:20 53.2 °F /  11.8 °C 44.8 °F /  7.1 °C 29.8in /  1008.1hPa WNW 2.9mph /  4.7km/h 3mph /  4.8km/h 73% 0in /  0.0mm 114 W/m2
15:25 53.2 °F /  11.8 °C 44.8 °F /  7.1 °C 29.8in /  1007.8hPa NW 4mph /  6.4km/h 6mph /  9.7km/h 73% 0in /  0.0mm 120 W/m2
15:30 53.2 °F /  11.8 °C 44.8 °F /  7.1 °C 29.8in /  1007.8hPa ENE 4mph /  6.4km/h 4mph /  6.4km/h 73% 0in /  0.0mm 141 W/m2
15:35 53.4 °F /  11.9 °C 45.3 °F /  7.4 °C 29.8in /  1007.8hPa NW 2.9mph /  4.7km/h 6mph /  9.7km/h 74% 0in /  0.0mm 163 W/m2
15:40 53.6 °F /  12 °C 45.1 °F /  7.3 °C 29.8in /  1007.8hPa NW 0.9mph /  1.4km/h 4mph /  6.4km/h 73% 0in /  0.0mm 104 W/m2
15:45 53.6 °F /  12 °C 44.8 °F /  7.1 °C 29.8in /  1007.8hPa North 4mph /  6.4km/h 5mph /  8km/h 72% 0in /  0.0mm 114 W/m2
15:50 53.6 °F /  12 °C 44.8 °F /  7.1 °C 29.8in /  1007.8hPa NE 2.9mph /  4.7km/h 6mph /  9.7km/h 72% 0in /  0.0mm 111 W/m2
15:55 53.6 °F /  12 °C 45.1 °F /  7.3 °C 29.8in /  1007.8hPa North 2mph /  3.2km/h 3mph /  4.8km/h 73% 0in /  0.0mm 90 W/m2
16:00 53.6 °F /  12 °C 45.1 °F /  7.3 °C 29.8in /  1007.8hPa North 2.9mph /  4.7km/h 4mph /  6.4km/h 73% 0in /  0.0mm 72 W/m2
16:05 53.4 °F /  11.9 °C 44.6 °F /  7 °C 29.8in /  1007.8hPa NW 2mph /  3.2km/h 5mph /  8km/h 72% 0in /  0.0mm 72 W/m2
16:10 53.4 °F /  11.9 °C 45 °F /  7.2 °C 29.8in /  1007.8hPa ENE 4mph /  6.4km/h 5mph /  8km/h 73% 0in /  0.0mm 62 W/m2
16:15 53.2 °F /  11.8 °C 44.8 °F /  7.1 °C 29.8in /  1007.8hPa North 2.9mph /  4.7km/h 4mph /  6.4km/h 73% 0in /  0.0mm 37 W/m2
16:20 53.2 °F /  11.8 °C 44.8 °F /  7.1 °C 29.8in /  1007.8hPa NNE 2mph /  3.2km/h 3mph /  4.8km/h 73% 0in /  0.0mm 28 W/m2
16:25 53.1 °F /  11.7 °C 45 °F /  7.2 °C 29.8in /  1007.5hPa NE 2mph /  3.2km/h 4mph /  6.4km/h 74% 0in /  0.0mm 33 W/m2
16:30 53.1 °F /  11.7 °C 45 °F /  7.2 °C 29.8in /  1007.5hPa NE 0.9mph /  1.4km/h 2mph /  3.2km/h 74% 0in /  0.0mm 28 W/m2
16:35 53.1 °F /  11.7 °C 45 °F /  7.2 °C 29.8in /  1007.5hPa North 0.9mph /  1.4km/h 4mph /  6.4km/h 74% 0in /  0.0mm 14 W/m2
16:40 53.1 °F /  11.7 °C 45 °F /  7.2 °C 29.8in /  1007.5hPa ENE 2mph /  3.2km/h 4mph /  6.4km/h 74% 0in /  0.0mm 12 W/m2
16:45 52.9 °F /  11.6 °C 45.1 °F /  7.3 °C 29.8in /  1007.5hPa NE 2.9mph /  4.7km/h 5mph /  8km/h 75% 0in /  0.0mm 11 W/m2
16:50 52.9 °F /  11.6 °C 45.1 °F /  7.3 °C 29.8in /  1007.5hPa NNE 2.9mph /  4.7km/h 5mph /  8km/h 75% 0in /  0.0mm 11 W/m2
16:55 52.9 °F /  11.6 °C 45.1 °F /  7.3 °C 29.8in /  1007.5hPa ENE 2mph /  3.2km/h 3mph /  4.8km/h 75% 0in /  0.0mm 7 W/m2
17:00 52.7 °F /  11.5 °C 45 °F /  7.2 °C 29.8in /  1007.5hPa ENE 2.9mph /  4.7km/h 3mph /  4.8km/h 75% 0in /  0.0mm 5 W/m2
17:05 52.7 °F /  11.5 °C 45 °F /  7.2 °C 29.8in /  1007.5hPa ESE 4mph /  6.4km/h 6mph /  9.7km/h 75% 0in /  0.0mm 5 W/m2
17:10 52.5 °F /  11.4 °C 44.8 °F /  7.1 °C 29.8in /  1007.5hPa NE 0.9mph /  1.4km/h 3mph /  4.8km/h 75% 0in /  0.0mm 5 W/m2
17:15 52.5 °F /  11.4 °C 44.8 °F /  7.1 °C 29.8in /  1007.5hPa Calm   5mph /  8km/h 75% 0in /  0.0mm 0 W/m2
17:20 52.5 °F /  11.4 °C 44.8 °F /  7.1 °C 29.8in /  1007.5hPa ENE 0.9mph /  1.4km/h 3mph /  4.8km/h 75% 0in /  0.0mm 0 W/m2
17:25 52.5 °F /  11.4 °C 44.8 °F /  7.1 °C 29.8in /  1007.5hPa NE 2.9mph /  4.7km/h 4mph /  6.4km/h 75% 0in /  0.0mm 0 W/m2
17:30 52.5 °F /  11.4 °C 44.8 °F /  7.1 °C 29.8in /  1007.5hPa ENE 4mph /  6.4km/h 4mph /  6.4km/h 75% 0in /  0.0mm 0 W/m2
17:35 52.3 °F /  11.3 °C 45 °F /  7.2 °C 29.8in /  1007.5hPa ESE 0.9mph /  1.4km/h 4mph /  6.4km/h 76% 0in /  0.0mm 0 W/m2
17:40 52.3 °F /  11.3 °C 45 °F /  7.2 °C 29.8in /  1007.5hPa ENE 0.9mph /  1.4km/h 4mph /  6.4km/h 76% 0in /  0.0mm 0 W/m2
17:45 52.3 °F /  11.3 °C 45.3 °F /  7.4 °C 29.8in /  1007.5hPa ENE 2mph /  3.2km/h 4mph /  6.4km/h 77% 0in /  0.0mm 0 W/m2
17:50 52.2 °F /  11.2 °C 45.1 °F /  7.3 °C 29.8in /  1007.5hPa NE 2mph /  3.2km/h 4mph /  6.4km/h 77% 0in /  0.0mm 0 W/m2
17:55 52.2 °F /  11.2 °C 45.5 °F /  7.5 °C 29.8in /  1007.5hPa East 2.9mph /  4.7km/h 4mph /  6.4km/h 78% 0in /  0.0mm 0 W/m2
18:00 52.2 °F /  11.2 °C 45.5 °F /  7.5 °C 29.8in /  1007.5hPa NNE 2.9mph /  4.7km/h 3mph /  4.8km/h 78% 0in /  0.0mm 0 W/m2
18:05 52.2 °F /  11.2 °C 45.5 °F /  7.5 °C 29.8in /  1007.5hPa East 2.9mph /  4.7km/h 6mph /  9.7km/h 78% 0in /  0.0mm 0 W/m2
18:10 52.2 °F /  11.2 °C 45.9 °F /  7.7 °C 29.8in /  1007.5hPa NE 4mph /  6.4km/h 5mph /  8km/h 79% 0in /  0.0mm 0 W/m2
18:15 52.2 °F /  11.2 °C 45.9 °F /  7.7 °C 29.8in /  1007.5hPa NNW 2.9mph /  4.7km/h 4mph /  6.4km/h 79% 0in /  0.0mm 0 W/m2
18:20 52.2 °F /  11.2 °C 45.9 °F /  7.7 °C 29.8in /  1007.5hPa NNE 2mph /  3.2km/h 3mph /  4.8km/h 79% 0in /  0.0mm 0 W/m2
18:25 52.2 °F /  11.2 °C 45.9 °F /  7.7 °C 29.8in /  1007.5hPa East 2mph /  3.2km/h 6mph /  9.7km/h 79% 0in /  0.0mm 0 W/m2
18:30 52.2 °F /  11.2 °C 45.9 °F /  7.7 °C 29.8in /  1007.5hPa NE 2.9mph /  4.7km/h 5mph /  8km/h 79% 0in /  0.0mm 0 W/m2
18:35 52.2 °F /  11.2 °C 46.2 °F /  7.9 °C 29.8in /  1007.5hPa NNW 2mph /  3.2km/h 4mph /  6.4km/h 80% 0in /  0.0mm 0 W/m2
18:40 52.2 °F /  11.2 °C 46.2 °F /  7.9 °C 29.8in /  1007.5hPa NE 2mph /  3.2km/h 5mph /  8km/h 80% 0in /  0.0mm 0 W/m2
18:45 52 °F /  11.1 °C 46.4 °F /  8 °C 29.8in /  1007.5hPa NNE 0.9mph /  1.4km/h 4mph /  6.4km/h 81% 0in /  0.0mm 0 W/m2
18:50 51.8 °F /  11 °C 46.2 °F /  7.9 °C 29.8in /  1007.5hPa ENE 4mph /  6.4km/h 5mph /  8km/h 81% 0in /  0.0mm 0 W/m2
18:55 51.8 °F /  11 °C 46.2 °F /  7.9 °C 29.8in /  1007.5hPa NNW 0.9mph /  1.4km/h 1mph /  1.6km/h 81% 0in /  0.0mm 0 W/m2
19:00 51.6 °F /  10.9 °C 46 °F /  7.8 °C 29.8in /  1007.5hPa NE 0.9mph /  1.4km/h 5mph /  8km/h 81% 0in /  0.0mm 0 W/m2
19:05 51.6 °F /  10.9 °C 46 °F /  7.8 °C 29.8in /  1007.5hPa ENE 2mph /  3.2km/h 6mph /  9.7km/h 81% 0in /  0.0mm 0 W/m2
19:10 51.6 °F /  10.9 °C 46 °F /  7.8 °C 29.8in /  1007.5hPa NNE 0.9mph /  1.4km/h 3mph /  4.8km/h 81% 0in /  0.0mm 0 W/m2
19:15 51.6 °F /  10.9 °C 46.2 °F /  7.9 °C 29.8in /  1007.5hPa Calm   1mph /  1.6km/h 82% 0in /  0.0mm 0 W/m2
19:20 51.6 °F /  10.9 °C 46 °F /  7.8 °C 29.8in /  1007.5hPa NNE 2.9mph /  4.7km/h 4mph /  6.4km/h 81% 0in /  0.0mm 0 W/m2
19:25 51.8 °F /  11 °C 46.2 °F /  7.9 °C 29.7in /  1007.1hPa NNE 0.9mph /  1.4km/h 3mph /  4.8km/h 81% 0in /  0.0mm 0 W/m2
19:30 51.8 °F /  11 °C 46.4 °F /  8 °C 29.7in /  1007.1hPa ESE 0.9mph /  1.4km/h 5mph /  8km/h 82% 0in /  0.0mm 0 W/m2
19:35 51.6 °F /  10.9 °C 46.2 °F /  7.9 °C 29.7in /  1007.1hPa ENE 2.9mph /  4.7km/h 4mph /  6.4km/h 82% 0in /  0.0mm 0 W/m2
19:40 51.6 °F /  10.9 °C 46.2 °F /  7.9 °C 29.7in /  1007.1hPa NE 4mph /  6.4km/h 5mph /  8km/h 82% 0in /  0.0mm 0 W/m2
19:45 51.6 °F /  10.9 °C 46.2 °F /  7.9 °C 29.7in /  1007.1hPa NE 2.9mph /  4.7km/h 7mph /  11.3km/h 82% 0in /  0.0mm 0 W/m2
19:50 51.6 °F /  10.9 °C 46.2 °F /  7.9 °C 29.7in /  1007.1hPa North 0.9mph /  1.4km/h 4mph /  6.4km/h 82% 0in /  0.0mm 0 W/m2
19:55 51.6 °F /  10.9 °C 46.6 °F /  8.1 °C 29.7in /  1007.1hPa North 2.9mph /  4.7km/h 4mph /  6.4km/h 83% 0in /  0.0mm 0 W/m2
20:00 51.6 °F /  10.9 °C 46.6 °F /  8.1 °C 29.7in /  1006.8hPa NE 2mph /  3.2km/h 4mph /  6.4km/h 83% 0in /  0.0mm 0 W/m2
20:05 51.6 °F /  10.9 °C 46.6 °F /  8.1 °C 29.7in /  1006.8hPa ENE 2mph /  3.2km/h 4mph /  6.4km/h 83% 0in /  0.0mm 0 W/m2
20:10 51.6 °F /  10.9 °C 46.6 °F /  8.1 °C 29.7in /  1006.8hPa NE 2.9mph /  4.7km/h 7mph /  11.3km/h 83% 0in /  0.0mm 0 W/m2
20:15 51.6 °F /  10.9 °C 46.6 °F /  8.1 °C 29.7in /  1006.8hPa NE 4.9mph /  7.9km/h 7mph /  11.3km/h 83% 0in /  0.0mm 0 W/m2
20:20 51.8 °F /  11 °C 46.4 °F /  8 °C 29.7in /  1006.8hPa NE 4.9mph /  7.9km/h 7mph /  11.3km/h 82% 0in /  0.0mm 0 W/m2
20:25 52 °F /  11.1 °C 46.6 °F /  8.1 °C 29.7in /  1006.8hPa NE 2mph /  3.2km/h 6mph /  9.7km/h 82% 0in /  0.0mm 0 W/m2
20:30 52 °F /  11.1 °C 46.6 °F /  8.1 °C 29.7in /  1006.8hPa West 2.9mph /  4.7km/h 5mph /  8km/h 82% 0in /  0.0mm 0 W/m2
20:35 51.8 °F /  11 °C 46.8 °F /  8.2 °C 29.7in /  1006.8hPa NE 2mph /  3.2km/h 5mph /  8km/h 83% 0in /  0.0mm 0 W/m2
20:40 51.4 °F /  10.8 °C 47.1 °F /  8.4 °C 29.7in /  1006.8hPa NNE 2mph /  3.2km/h 4mph /  6.4km/h 85% 0in /  0.0mm 0 W/m2
20:45 51.3 °F /  10.7 °C 46.9 °F /  8.3 °C 29.7in /  1006.8hPa NE 2mph /  3.2km/h 9mph /  14.5km/h 85% 0in /  0.0mm 0 W/m2
20:50 51.1 °F /  10.6 °C 47.1 °F /  8.4 °C 29.7in /  1006.8hPa NNW 0.9mph /  1.4km/h 6mph /  9.7km/h 86% 0in /  0.0mm 0 W/m2
20:55 51.1 °F /  10.6 °C 47.3 °F /  8.5 °C 29.7in /  1006.8hPa ENE 2mph /  3.2km/h 2mph /  3.2km/h 87% 0in /  0.0mm 0 W/m2
21:00 51.1 °F /  10.6 °C 47.3 °F /  8.5 °C 29.7in /  1006.8hPa North 2mph /  3.2km/h 4mph /  6.4km/h 87% 0in /  0.0mm 0 W/m2
21:05 51.1 °F /  10.6 °C 47.3 °F /  8.5 °C 29.7in /  1006.8hPa Calm   4mph /  6.4km/h 87% 0in /  0.0mm 0 W/m2
21:10 51.3 °F /  10.7 °C 47.3 °F /  8.5 °C 29.7in /  1006.8hPa East 0.9mph /  1.4km/h 7mph /  11.3km/h 86% 0in /  0.0mm 0 W/m2
21:15 51.4 °F /  10.8 °C 47.5 °F /  8.6 °C 29.7in /  1006.4hPa NNW 4mph /  6.4km/h 4mph /  6.4km/h 86% 0in /  0.0mm 0 W/m2
21:20 51.4 °F /  10.8 °C 47.1 °F /  8.4 °C 29.7in /  1006.4hPa NNE 0.9mph /  1.4km/h 8mph /  12.9km/h 85% 0in /  0.0mm 0 W/m2
21:25 51.6 °F /  10.9 °C 47.3 °F /  8.5 °C 29.7in /  1006.8hPa West 4mph /  6.4km/h 7mph /  11.3km/h 85% 0in /  0.0mm 0 W/m2
21:30 52 °F /  11.1 °C 47.7 °F /  8.7 °C 29.7in /  1006.8hPa Calm   4mph /  6.4km/h 85% 0in /  0.0mm 0 W/m2
21:35 52 °F /  11.1 °C 47.7 °F /  8.7 °C 29.7in /  1006.8hPa NNE 2mph /  3.2km/h 4mph /  6.4km/h 85% 0in /  0.0mm 0 W/m2
21:40 52 °F /  11.1 °C 47.7 °F /  8.7 °C 29.7in /  1006.8hPa NW 2.9mph /  4.7km/h 8mph /  12.9km/h 85% 0in /  0.0mm 0 W/m2
21:45 52 °F /  11.1 °C 47.7 °F /  8.7 °C 29.7in /  1006.8hPa NNE 2mph /  3.2km/h 4mph /  6.4km/h 85% 0in /  0.0mm 0 W/m2
21:50 52.2 °F /  11.2 °C 47.8 °F /  8.8 °C 29.7in /  1006.8hPa NW 2.9mph /  4.7km/h 10mph /  16.1km/h 85% 0in /  0.0mm 0 W/m2
21:55 52.2 °F /  11.2 °C 47.8 °F /  8.8 °C 29.7in /  1006.4hPa NNW 2mph /  3.2km/h 8mph /  12.9km/h 85% 0in /  0.0mm 0 W/m2
22:00 52.2 °F /  11.2 °C 47.8 °F /  8.8 °C 29.7in /  1006.8hPa North 2.9mph /  4.7km/h 9mph /  14.5km/h 85% 0in /  0.0mm 0 W/m2
22:05 52.2 °F /  11.2 °C 47.8 °F /  8.8 °C 29.7in /  1006.4hPa North 2mph /  3.2km/h 6mph /  9.7km/h 85% 0in /  0.0mm 0 W/m2
22:10 52.2 °F /  11.2 °C 47.8 °F /  8.8 °C 29.7in /  1006.4hPa NNW 0.9mph /  1.4km/h 9mph /  14.5km/h 85% 0in /  0.0mm 0 W/m2
22:15 52.2 °F /  11.2 °C 48 °F /  8.9 °C 29.7in /  1006.4hPa East 4mph /  6.4km/h 4mph /  6.4km/h 86% 0in /  0.0mm 0 W/m2
22:20 52.2 °F /  11.2 °C 48 °F /  8.9 °C 29.7in /  1006.8hPa ENE 6mph /  9.7km/h 6mph /  9.7km/h 86% 0in /  0.0mm 0 W/m2
22:25 52 °F /  11.1 °C 48.2 °F /  9 °C 29.7in /  1006.4hPa ENE 6.9mph /  11.1km/h 10mph /  16.1km/h 87% 0in /  0.0mm 0 W/m2
22:30 51.6 °F /  10.9 °C 48.2 °F /  9 °C 29.7in /  1006.8hPa NE 0.9mph /  1.4km/h 6mph /  9.7km/h 88% 0in /  0.0mm 0 W/m2
22:35 51.6 °F /  10.9 °C 48.6 °F /  9.2 °C 29.7in /  1006.4hPa NNE 2.9mph /  4.7km/h 7mph /  11.3km/h 89% 0in /  0.0mm 0 W/m2
22:40 51.4 °F /  10.8 °C 48.4 °F /  9.1 °C 29.7in /  1006.4hPa North 2.9mph /  4.7km/h 4mph /  6.4km/h 89% 0in /  0.0mm 0 W/m2
22:45 51.4 °F /  10.8 °C 48.4 °F /  9.1 °C 29.7in /  1006.8hPa WNW 4mph /  6.4km/h 4mph /  6.4km/h 89% 0in /  0.0mm 0 W/m2
22:50 51.4 °F /  10.8 °C 48.6 °F /  9.2 °C 29.7in /  1006.8hPa NNE 2.9mph /  4.7km/h 8mph /  12.9km/h 90% 0.01in /  0.2mm 0 W/m2
22:55 51.3 °F /  10.7 °C 48.4 °F /  9.1 °C 29.7in /  1006.4hPa NE 2.9mph /  4.7km/h 6mph /  9.7km/h 90% 0.01in /  0.2mm 0 W/m2
23:00 51.3 °F /  10.7 °C 48.4 °F /  9.1 °C 29.7in /  1006.4hPa NNW 2mph /  3.2km/h 8mph /  12.9km/h 90% 0.01in /  0.2mm 0 W/m2
23:05 51.3 °F /  10.7 °C 48.7 °F /  9.3 °C 29.7in /  1006.4hPa NW 2mph /  3.2km/h 2mph /  3.2km/h 91% 0.01in /  0.2mm 0 W/m2
23:10 51.3 °F /  10.7 °C 48.7 °F /  9.3 °C 29.7in /  1006.4hPa SE 6.9mph /  11.1km/h 7mph /  11.3km/h 91% 0.01in /  0.2mm 0 W/m2
23:15 51.3 °F /  10.7 °C 48.7 °F /  9.3 °C 29.7in /  1006.4hPa NNW 2.9mph /  4.7km/h 5mph /  8km/h 91% 0.01in /  0.2mm 0 W/m2
23:20 51.1 °F /  10.6 °C 48.6 °F /  9.2 °C 29.7in /  1006.8hPa WNW 2mph /  3.2km/h 8mph /  12.9km/h 91% 0.01in /  0.2mm 0 W/m2
23:25 51.1 °F /  10.6 °C 48.9 °F /  9.4 °C 29.7in /  1006.4hPa NW 6mph /  9.7km/h 8mph /  12.9km/h 92% 0.01in /  0.2mm 0 W/m2
23:30 51.1 °F /  10.6 °C 48.9 °F /  9.4 °C 29.7in /  1006.4hPa NW 2.9mph /  4.7km/h 8mph /  12.9km/h 92% 0.01in /  0.2mm 0 W/m2
23:35 51.1 °F /  10.6 °C 48.9 °F /  9.4 °C 29.7in /  1006.4hPa NE 4mph /  6.4km/h 6mph /  9.7km/h 92% 0.02in /  0.5mm 0 W/m2
23:40 50.9 °F /  10.5 °C 48.9 °F /  9.4 °C 29.7in /  1006.4hPa Calm   8mph /  12.9km/h 93% 0.02in /  0.5mm 0 W/m2
23:45 50.9 °F /  10.5 °C 48.9 °F /  9.4 °C 29.7in /  1006.4hPa NNE 4.9mph /  7.9km/h 5mph /  8km/h 93% 0.02in /  0.5mm 0 W/m2
23:50 50.9 °F /  10.5 °C 48.9 °F /  9.4 °C 29.7in /  1006.4hPa NNE 0.9mph /  1.4km/h 5mph /  8km/h 93% 0.02in /  0.5mm 0 W/m2
23:55 50.9 °F /  10.5 °C 48.9 °F /  9.4 °C 29.7in /  1006.4hPa NNE 2mph /  3.2km/h 4mph /  6.4km/h 93% 0.02in /  0.5mm 0 W/m2
Juneau County Weather
Compliments of Weather Underground - 2 mb